Time;durP1;ratioP1;P1;durP2;ratioP2;P2;SDS_P1;SDS_P2;PMS_P1;PMS_P2;Temp;Humidity;BMP_temperature;BMP_pressure;BME280_temperature;BME280_humidity;BME280_pressure;Samples;Min_cycle;Max_cycle;Signal;HPM_P1;HPM_P2
2021/11/07 00:04:07;;;;;;;9.55;3.83;;;;;;;;;;5018391;28;20045;-70
2021/11/07 00:06:46;;;;;;;9.75;4.55;;;;;;;;;;5031714;28;20398;-70
2021/11/07 00:09:23;;;;;;;11.52;4.03;;;;;;;;;;5031492;28;20098;-71
2021/11/07 00:11:53;;;;;;;7.32;3.28;;;;;;;;;;5031421;28;20032;-70
2021/11/07 00:14:19;;;;;;;7.90;2.53;;;;;;;;;;5031580;28;20176;-71
2021/11/07 00:16:44;;;;;;;6.65;2.72;;;;;;;;;;5031301;28;20630;-71
2021/11/07 00:19:13;;;;;;;5.53;2.72;;;;;;;;;;5031424;28;20036;-70
2021/11/07 00:24:37;;;;;;;7.25;3.20;;;;;;;;;;4999728;28;20491;-70
2021/11/07 00:27:07;;;;;;;7.18;2.35;;;;;;;;;;5011874;28;20018;-70
2021/11/07 00:29:36;;;;;;;5.03;2.17;;;;;;;;;;5023745;28;20588;-70
2021/11/07 00:36:57;;;;;;;4.93;2.88;;;;;;;;;;5031796;28;20026;-71
2021/11/07 00:39:48;;;;;;;3.75;2.22;;;;;;;;;;5030891;28;20029;-71
2021/11/07 00:42:18;;;;;;;5.55;2.03;;;;;;;;;;5030834;28;20113;-71
2021/11/07 00:45:07;;;;;;;3.13;1.70;;;;;;;;;;5031401;28;20014;-71
2021/11/07 00:47:36;;;;;;;4.45;2.13;;;;;;;;;;5031484;28;20040;-71
2021/11/07 00:50:07;;;;;;;2.90;1.65;;;;;;;;;;5031224;28;20429;-71
2021/11/07 00:55:42;;;;;;;6.07;2.25;;;;;;;;;;5013348;28;20694;-71
2021/11/07 00:58:12;;;;;;;7.03;3.05;;;;;;;;;;5030267;28;20115;-71
2021/11/07 01:03:13;;;;;;;6.20;2.42;;;;;;;;;;5021184;28;20029;-71
2021/11/07 01:05:39;;;;;;;4.05;1.95;;;;;;;;;;5011265;28;20076;-71
2021/11/07 01:08:04;;;;;;;7.90;4.25;;;;;;;;;;5010912;28;20657;-71
2021/11/07 01:10:30;;;;;;;4.97;2.22;;;;;;;;;;5027237;28;20030;-71
2021/11/07 01:12:57;;;;;;;8.43;2.42;;;;;;;;;;5030273;28;20032;-71
2021/11/07 01:15:24;;;;;;;13.40;5.38;;;;;;;;;;5030928;28;20044;-71
2021/11/07 01:17:49;;;;;;;9.98;3.40;;;;;;;;;;5028508;28;20028;-71
2021/11/07 01:20:16;;;;;;;2.80;1.30;;;;;;;;;;5030516;28;20014;-72
2021/11/07 01:23:02;;;;;;;13.48;2.95;;;;;;;;;;5030087;28;20018;-72
2021/11/07 01:25:30;;;;;;;9.77;2.00;;;;;;;;;;5038042;28;20025;-72
2021/11/07 01:27:57;;;;;;;5.53;2.30;;;;;;;;;;5050449;28;20029;-71
2021/11/07 01:30:25;;;;;;;12.57;3.17;;;;;;;;;;5035479;28;20104;-71
2021/11/07 01:32:57;;;;;;;4.00;1.30;;;;;;;;;;5030178;28;20025;-71
2021/11/07 01:40:23;;;;;;;5.57;2.35;;;;;;;;;;5034179;28;20010;-71
2021/11/07 01:42:56;;;;;;;7.32;2.22;;;;;;;;;;5036817;28;20021;-70
2021/11/07 01:45:54;;;;;;;7.00;2.22;;;;;;;;;;5037127;28;20010;-71
2021/11/07 01:48:24;;;;;;;8.70;2.90;;;;;;;;;;5036547;28;20048;-71
2021/11/07 01:50:55;;;;;;;;;;;;;;;;;;5037549;28;20021;-71
2021/11/07 01:53:25;;;;;;;2.15;0.95;;;;;;;;;;5036307;28;19916;-71
2021/11/07 01:55:52;;;;;;;10.45;2.20;;;;;;;;;;5037140;28;20160;-71
2021/11/07 01:58:17;;;;;;;3.88;1.88;;;;;;;;;;5036753;28;20486;-72
2021/11/07 02:00:43;;;;;;;5.93;2.13;;;;;;;;;;5037253;28;20055;-71
2021/11/07 02:03:10;;;;;;;3.75;1.67;;;;;;;;;;5036310;28;20032;-71
2021/11/07 02:05:35;;;;;;;3.97;1.50;;;;;;;;;;5036849;28;20080;-71
2021/11/07 02:08:03;;;;;;;8.90;2.20;;;;;;;;;;5036703;28;20100;-71
2021/11/07 02:10:28;;;;;;;7.28;2.50;;;;;;;;;;5036749;28;20044;-72
2021/11/07 02:12:53;;;;;;;4.82;2.47;;;;;;;;;;5036160;28;20128;-71
2021/11/07 02:15:19;;;;;;;2.80;1.17;;;;;;;;;;5043458;28;20028;-71
2021/11/07 02:17:46;;;;;;;4.57;1.63;;;;;;;;;;5041657;28;20079;-71
2021/11/07 02:20:13;;;;;;;7.85;1.98;;;;;;;;;;5036567;28;20021;-72
2021/11/07 02:22:39;;;;;;;5.28;1.00;;;;;;;;;;5038648;28;20017;-71
2021/11/07 02:25:05;;;;;;;6.60;1.48;;;;;;;;;;5035280;28;20039;-71
2021/11/07 02:27:30;;;;;;;5.75;2.65;;;;;;;;;;5036618;28;20025;-71
2021/11/07 02:29:56;;;;;;;3.22;1.08;;;;;;;;;;5036309;28;20029;-71
2021/11/07 02:32:21;;;;;;;5.78;1.50;;;;;;;;;;5035926;28;20029;-71
2021/11/07 02:34:47;;;;;;;3.30;1.08;;;;;;;;;;5036835;28;20017;-71
2021/11/07 02:37:13;;;;;;;15.82;1.42;;;;;;;;;;5036375;28;20068;-71
2021/11/07 02:39:38;;;;;;;5.50;1.45;;;;;;;;;;5036786;28;20009;-71
2021/11/07 02:42:05;;;;;;;3.88;1.65;;;;;;;;;;5048667;28;20372;-71
2021/11/07 02:44:30;;;;;;;4.38;1.20;;;;;;;;;;5035492;28;20156;-71
2021/11/07 02:46:55;;;;;;;4.10;1.40;;;;;;;;;;5016587;28;20563;-71
2021/11/07 02:49:20;;;;;;;4.00;1.20;;;;;;;;;;5016612;28;20087;-71
2021/11/07 02:51:46;;;;;;;3.28;1.40;;;;;;;;;;5031524;28;20275;-71
2021/11/07 02:54:11;;;;;;;6.75;1.80;;;;;;;;;;5032889;28;20021;-71
2021/11/07 02:56:36;;;;;;;4.95;1.48;;;;;;;;;;5033309;28;20433;-71
2021/11/07 02:59:03;;;;;;;4.05;1.30;;;;;;;;;;5033107;28;20466;-71
2021/11/07 03:01:29;;;;;;;3.90;1.60;;;;;;;;;;5033139;28;20131;-71
2021/11/07 03:04:01;;;;;;;4.35;1.83;;;;;;;;;;5032940;28;20097;-71
2021/11/07 03:06:29;;;;;;;10.18;1.00;;;;;;;;;;5032661;28;20478;-71
2021/11/07 03:08:54;;;;;;;2.50;1.63;;;;;;;;;;5032664;28;20112;-71
2021/11/07 03:11:20;;;;;;;6.28;1.85;;;;;;;;;;5033047;28;20101;-71
2021/11/07 03:13:46;;;;;;;5.40;1.23;;;;;;;;;;5032873;28;20029;-72
2021/11/07 03:16:15;;;;;;;4.47;1.40;;;;;;;;;;5033193;28;20014;-72
2021/11/07 03:18:41;;;;;;;4.95;1.63;;;;;;;;;;5032406;28;20022;-71
2021/11/07 03:21:07;;;;;;;6.60;1.55;;;;;;;;;;5031455;28;20018;-71
2021/11/07 03:23:35;;;;;;;1.50;1.00;;;;;;;;;;5032067;28;20029;-71
2021/11/07 03:26:08;;;;;;;11.18;2.47;;;;;;;;;;5032919;28;20374;-71
2021/11/07 03:28:34;;;;;;;2.67;1.50;;;;;;;;;;5032721;28;20048;-71
2021/11/07 03:33:33;;;;;;;5.03;1.40;;;;;;;;;;5032367;28;20108;-71
2021/11/07 03:36:01;;;;;;;4.68;2.10;;;;;;;;;;5032427;28;20056;-71
2021/11/07 03:38:27;;;;;;;6.40;2.75;;;;;;;;;;5032146;28;20021;-71
2021/11/07 03:40:52;;;;;;;15.13;6.22;;;;;;;;;;5032462;28;20371;-71
2021/11/07 03:43:25;;;;;;;14.25;6.05;;;;;;;;;;5032261;28;20018;-71
2021/11/07 03:45:50;;;;;;;17.83;8.63;;;;;;;;;;5033463;28;20025;-71
2021/11/07 03:48:15;;;;;;;37.47;16.30;;;;;;;;;;5041358;28;20391;-71
2021/11/07 03:50:44;;;;;;;15.20;7.45;;;;;;;;;;5031878;28;20040;-71
2021/11/07 03:53:09;;;;;;;12.40;4.38;;;;;;;;;;5031244;28;20385;-71
2021/11/07 03:55:35;;;;;;;4.82;2.85;;;;;;;;;;5032443;28;20018;-71
2021/11/07 03:58:00;;;;;;;1.85;1.17;;;;;;;;;;5032101;28;20044;-71
2021/11/07 04:00:25;;;;;;;9.07;1.75;;;;;;;;;;5032293;28;20422;-71
2021/11/07 04:02:51;;;;;;;5.05;2.75;;;;;;;;;;5030592;28;20029;-71
2021/11/07 04:05:16;;;;;;;3.90;1.58;;;;;;;;;;5031863;28;20021;-71
2021/11/07 04:07:41;;;;;;;4.47;1.90;;;;;;;;;;5031633;28;20025;-71
2021/11/07 04:10:08;;;;;;;7.45;1.92;;;;;;;;;;5032007;28;20104;-70
2021/11/07 04:12:33;;;;;;;4.20;1.60;;;;;;;;;;5031674;28;20074;-71
2021/11/07 04:14:58;;;;;;;2.38;1.52;;;;;;;;;;5031522;28;20494;-71
2021/11/07 04:17:24;;;;;;;2.53;1.73;;;;;;;;;;5031637;28;20025;-70
2021/11/07 04:19:49;;;;;;;2.00;1.02;;;;;;;;;;5031564;28;20017;-70
2021/11/07 04:22:14;;;;;;;3.78;1.67;;;;;;;;;;5031526;28;20021;-70
2021/11/07 04:24:40;;;;;;;4.35;1.50;;;;;;;;;;5033953;28;20053;-71
2021/11/07 04:27:06;;;;;;;6.78;1.90;;;;;;;;;;5031464;28;20476;-71
2021/11/07 04:29:31;;;;;;;6.07;2.25;;;;;;;;;;5031453;28;20025;-70
2021/11/07 04:31:57;;;;;;;3.08;1.75;;;;;;;;;;5030351;28;20029;-70
2021/11/07 04:34:23;;;;;;;5.43;1.40;;;;;;;;;;5031585;28;20022;-71
2021/11/07 04:36:48;;;;;;;3.38;1.77;;;;;;;;;;5031477;28;20022;-71
2021/11/07 04:39:13;;;;;;;5.25;2.03;;;;;;;;;;5031444;28;20108;-71
2021/11/07 04:41:38;;;;;;;2.30;1.73;;;;;;;;;;5031423;28;20061;-71
2021/11/07 04:44:04;;;;;;;5.82;2.05;;;;;;;;;;5030805;28;20675;-71
2021/11/07 04:46:29;;;;;;;3.88;2.20;;;;;;;;;;5031131;28;20037;-72
2021/11/07 04:48:54;;;;;;;4.55;1.75;;;;;;;;;;5031422;28;20524;-71
2021/11/07 04:51:20;;;;;;;6.70;2.15;;;;;;;;;;5031255;28;20049;-71
2021/11/07 04:53:46;;;;;;;4.80;2.00;;;;;;;;;;5042965;28;20071;-71
2021/11/07 04:56:12;;;;;;;6.43;2.00;;;;;;;;;;5031198;28;20051;-71
2021/11/07 04:58:37;;;;;;;2.78;1.85;;;;;;;;;;5030564;28;20045;-71
2021/11/07 05:01:03;;;;;;;2.55;1.35;;;;;;;;;;5030573;28;20375;-71
2021/11/07 05:03:29;;;;;;;6.03;2.20;;;;;;;;;;5030742;28;20053;-71
2021/11/07 05:05:54;;;;;;;5.50;2.42;;;;;;;;;;5030783;28;20112;-71
2021/11/07 05:08:19;;;;;;;5.88;2.97;;;;;;;;;;5030885;28;20440;-71
2021/11/07 05:10:45;;;;;;;6.25;2.70;;;;;;;;;;5030915;28;20025;-71
2021/11/07 05:13:10;;;;;;;4.63;1.88;;;;;;;;;;5030502;28;20024;-71
2021/11/07 05:15:36;;;;;;;3.85;2.25;;;;;;;;;;5030894;28;20025;-71
2021/11/07 05:18:02;;;;;;;5.20;2.33;;;;;;;;;;5042336;28;20108;-71
2021/11/07 05:20:27;;;;;;;3.88;2.22;;;;;;;;;;5030972;28;20459;-71
2021/11/07 05:22:52;;;;;;;2.70;1.83;;;;;;;;;;5032834;28;20100;-71
2021/11/07 05:25:17;;;;;;;4.97;2.63;;;;;;;;;;5030505;28;20022;-71
2021/11/07 05:27:43;;;;;;;3.10;1.65;;;;;;;;;;5030008;28;20032;-71
2021/11/07 05:30:09;;;;;;;4.97;2.80;;;;;;;;;;5030323;28;20017;-71
2021/11/07 05:32:34;;;;;;;6.68;3.38;;;;;;;;;;5030335;28;20025;-71
2021/11/07 05:35:00;;;;;;;6.00;2.73;;;;;;;;;;5029515;28;20022;-71
2021/11/07 05:37:25;;;;;;;6.28;2.83;;;;;;;;;;5030540;28;20256;-71
2021/11/07 05:39:51;;;;;;;5.88;3.60;;;;;;;;;;5030386;28;20013;-71
2021/11/07 05:42:16;;;;;;;7.97;2.40;;;;;;;;;;5030288;28;20029;-71
2021/11/07 05:44:41;;;;;;;7.15;3.20;;;;;;;;;;5030081;28;20021;-71
2021/11/07 05:47:07;;;;;;;7.65;3.22;;;;;;;;;;5030436;28;20024;-71
2021/11/07 05:49:32;;;;;;;5.85;3.22;;;;;;;;;;5030444;28;20064;-71
2021/11/07 05:51:58;;;;;;;7.80;3.33;;;;;;;;;;5030114;28;20021;-71
2021/11/07 05:54:23;;;;;;;6.03;2.95;;;;;;;;;;5030571;28;20061;-71
2021/11/07 05:56:48;;;;;;;7.90;3.67;;;;;;;;;;5030239;28;20140;-71
2021/11/07 05:59:14;;;;;;;8.15;3.40;;;;;;;;;;5039496;28;20100;-71
2021/11/07 06:01:39;;;;;;;9.40;3.35;;;;;;;;;;5033152;28;20389;-71
2021/11/07 06:04:05;;;;;;;7.85;3.75;;;;;;;;;;5029998;28;20025;-71
2021/11/07 06:06:30;;;;;;;7.03;3.45;;;;;;;;;;5029434;28;20363;-71
2021/11/07 06:08:55;;;;;;;9.70;3.88;;;;;;;;;;5029980;28;20073;-70
2021/11/07 06:11:20;;;;;;;11.25;4.10;;;;;;;;;;5030077;28;20025;-70
2021/11/07 06:13:46;;;;;;;8.90;3.60;;;;;;;;;;5029925;28;20060;-70
2021/11/07 06:16:12;;;;;;;6.97;3.63;;;;;;;;;;5030233;28;20377;-72
2021/11/07 06:18:37;;;;;;;6.88;3.50;;;;;;;;;;5030024;28;20024;-71
2021/11/07 06:21:02;;;;;;;10.65;3.75;;;;;;;;;;5029854;28;20449;-70
2021/11/07 06:23:27;;;;;;;6.90;3.20;;;;;;;;;;5032211;28;20556;-71
2021/11/07 06:25:52;;;;;;;10.52;3.95;;;;;;;;;;5029480;28;20029;-71
2021/11/07 06:28:18;;;;;;;7.78;3.75;;;;;;;;;;5033538;28;20024;-71
2021/11/07 06:30:45;;;;;;;9.77;4.82;;;;;;;;;;5033786;28;20405;-71
2021/11/07 06:33:10;;;;;;;8.40;4.18;;;;;;;;;;5033484;28;20076;-71
2021/11/07 06:35:35;;;;;;;6.40;3.25;;;;;;;;;;5033766;28;20022;-70
2021/11/07 06:38:01;;;;;;;9.65;3.92;;;;;;;;;;5033252;28;20044;-70
2021/11/07 06:40:26;;;;;;;8.15;2.47;;;;;;;;;;5036210;28;20107;-71
2021/11/07 06:42:52;;;;;;;10.17;4.80;;;;;;;;;;5031837;28;20022;-72
2021/11/07 06:45:17;;;;;;;12.25;5.68;;;;;;;;;;5033574;28;20335;-71
2021/11/07 06:47:42;;;;;;;10.13;4.90;;;;;;;;;;5033335;28;20029;-71
2021/11/07 06:50:08;;;;;;;7.88;4.93;;;;;;;;;;5032082;28;20018;-71
2021/11/07 06:52:33;;;;;;;7.95;4.15;;;;;;;;;;5033192;28;20017;-70
2021/11/07 06:55:00;;;;;;;5.88;3.88;;;;;;;;;;5032741;28;20045;-71
2021/11/07 06:57:25;;;;;;;8.25;4.35;;;;;;;;;;5033280;28;20079;-71
2021/11/07 06:59:51;;;;;;;5.22;3.80;;;;;;;;;;5033394;28;20090;-71
2021/11/07 07:02:16;;;;;;;9.55;3.80;;;;;;;;;;5032941;28;20013;-71
2021/11/07 07:04:41;;;;;;;9.90;3.90;;;;;;;;;;5037892;28;20021;-71
2021/11/07 07:07:06;;;;;;;9.77;4.22;;;;;;;;;;5040307;28;20723;-72
2021/11/07 07:09:40;;;;;;;8.60;3.90;;;;;;;;;;5032493;28;20021;-72
2021/11/07 07:12:13;;;;;;;6.60;4.28;;;;;;;;;;5041714;28;20025;-72
2021/11/07 07:23:08;;;;;;;6.10;3.85;;;;;;;;;;4972523;28;20050;-72
2021/11/07 07:36:03;;;;;;;13.25;7.93;;;;;;;;;;5032759;28;20026;-71
2021/11/07 07:38:29;;;;;;;15.23;7.50;;;;;;;;;;5032080;28;20045;-72
2021/11/07 07:40:55;;;;;;;15.85;5.75;;;;;;;;;;5032200;28;20029;-72
2021/11/07 07:43:20;;;;;;;13.75;6.45;;;;;;;;;;5032255;28;20425;-72
2021/11/07 07:45:46;;;;;;;10.60;7.05;;;;;;;;;;5032307;28;20108;-72
2021/11/07 07:48:11;;;;;;;11.57;7.00;;;;;;;;;;5032323;28;20025;-72
2021/11/07 07:50:39;;;;;;;14.18;6.65;;;;;;;;;;5032191;28;20032;-72
2021/11/07 07:53:06;;;;;;;12.15;8.05;;;;;;;;;;5032206;28;20017;-72
2021/11/07 07:55:31;;;;;;;22.10;8.85;;;;;;;;;;5031886;28;20028;-72
2021/11/07 07:57:57;;;;;;;13.27;7.68;;;;;;;;;;5032218;28;20025;-71
2021/11/07 08:00:22;;;;;;;15.57;8.00;;;;;;;;;;5032221;28;20441;-71
2021/11/07 08:02:47;;;;;;;16.02;9.43;;;;;;;;;;5031826;28;20496;-71
2021/11/07 08:05:14;;;;;;;10.82;6.43;;;;;;;;;;5032210;28;20036;-71
2021/11/07 08:07:41;;;;;;;20.88;8.38;;;;;;;;;;5031739;28;20017;-71
2021/11/07 08:10:07;;;;;;;17.10;10.55;;;;;;;;;;5032908;28;20029;-71
2021/11/07 08:12:32;;;;;;;21.83;10.95;;;;;;;;;;5042807;28;20021;-71
2021/11/07 08:14:57;;;;;;;15.07;8.50;;;;;;;;;;5031548;28;20028;-72
2021/11/07 08:17:23;;;;;;;16.38;9.75;;;;;;;;;;5031987;28;20099;-71
2021/11/07 08:19:49;;;;;;;17.02;8.95;;;;;;;;;;5031873;28;20067;-71
2021/11/07 08:22:15;;;;;;;22.05;11.18;;;;;;;;;;5031529;28;20462;-71
2021/11/07 08:24:40;;;;;;;21.40;9.02;;;;;;;;;;5033648;28;20017;-71
2021/11/07 08:27:06;;;;;;;21.05;8.73;;;;;;;;;;5031429;28;20390;-69
2021/11/07 08:29:31;;;;;;;22.17;8.35;;;;;;;;;;5031270;28;20025;-70
2021/11/07 08:31:58;;;;;;;18.70;8.30;;;;;;;;;;5030619;28;20021;-70
2021/11/07 08:34:27;;;;;;;14.27;7.53;;;;;;;;;;5031420;28;20034;-70
2021/11/07 08:37:30;;;;;;;15.43;6.47;;;;;;;;;;5031504;28;20047;-69
2021/11/07 08:39:55;;;;;;;16.05;7.00;;;;;;;;;;5029768;28;20471;-69
2021/11/07 08:42:33;;;;;;;18.83;7.70;;;;;;;;;;5040963;28;20023;-69
2021/11/07 09:03:53;;;;;;;16.67;5.30;;;;;;;;;;5030774;28;20033;-70
2021/11/07 09:08:49;;;;;;;21.75;6.65;;;;;;;;;;5030841;28;20104;-69
2021/11/07 09:11:14;;;;;;;18.13;5.40;;;;;;;;;;5030732;28;20469;-70
2021/11/07 09:13:40;;;;;;;20.58;6.78;;;;;;;;;;5028626;28;20028;-70
2021/11/07 09:16:07;;;;;;;21.00;5.50;;;;;;;;;;5030836;28;20083;-70
2021/11/07 09:18:33;;;;;;;16.00;4.93;;;;;;;;;;5030826;28;20021;-70
2021/11/07 09:24:05;;;;;;;13.52;4.22;;;;;;;;;;4994795;28;20017;-70
2021/11/07 09:26:36;;;;;;;27.45;6.55;;;;;;;;;;5043590;28;20025;-70
2021/11/07 09:29:20;;;;;;;15.63;4.55;;;;;;;;;;5049450;28;20067;-68
2021/11/07 09:32:03;;;;;;;27.27;6.03;;;;;;;;;;5028922;28;20049;-69
2021/11/07 09:34:42;;;;;;;15.95;4.90;;;;;;;;;;5026995;28;20031;-69
2021/11/07 09:40:03;;;;;;;15.07;5.22;;;;;;;;;;5005646;28;20052;-69
2021/11/07 09:44:56;;;;;;;20.42;5.57;;;;;;;;;;5030464;28;20041;-69
2021/11/07 09:47:22;;;;;;;16.17;4.05;;;;;;;;;;5030346;28;20406;-70
2021/11/07 09:49:48;;;;;;;26.42;6.00;;;;;;;;;;5030302;28;20017;-69
2021/11/07 09:52:20;;;;;;;22.13;4.53;;;;;;;;;;5029816;28;20028;-69
2021/11/07 09:54:49;;;;;;;21.27;3.75;;;;;;;;;;5029926;28;20109;-69
2021/11/07 09:57:23;;;;;;;14.35;3.95;;;;;;;;;;5030169;28;20020;-70
2021/11/07 09:59:54;;;;;;;24.08;4.80;;;;;;;;;;5030390;28;20470;-70
2021/11/07 10:02:20;;;;;;;17.70;4.25;;;;;;;;;;5033603;28;20071;-68
2021/11/07 10:04:47;;;;;;;24.85;5.47;;;;;;;;;;5034439;28;20021;-70
2021/11/07 10:07:14;;;;;;;15.82;3.83;;;;;;;;;;5033686;28;20412;-69
2021/11/07 10:09:41;;;;;;;19.17;3.60;;;;;;;;;;5033016;28;20104;-69
2021/11/07 10:12:14;;;;;;;15.85;3.03;;;;;;;;;;5033493;28;20389;-69
2021/11/07 10:14:42;;;;;;;18.08;3.78;;;;;;;;;;5034314;28;20092;-70
2021/11/07 10:17:20;;;;;;;21.77;4.70;;;;;;;;;;5033872;28;20021;-70
2021/11/07 10:19:55;;;;;;;23.35;4.22;;;;;;;;;;5026280;28;20021;-70
2021/11/07 10:22:20;;;;;;;20.10;3.58;;;;;;;;;;5033477;28;20025;-70
2021/11/07 10:24:53;;;;;;;20.02;3.75;;;;;;;;;;5035956;28;20409;-70
2021/11/07 10:27:18;;;;;;;21.42;3.70;;;;;;;;;;5032663;28;20036;-71
2021/11/07 10:29:49;;;;;;;22.67;3.67;;;;;;;;;;5033134;28;20029;-70
2021/11/07 10:32:25;;;;;;;22.35;4.35;;;;;;;;;;5033214;28;20071;-71
2021/11/07 10:40:58;;;;;;;21.77;5.43;;;;;;;;;;5033498;28;20052;-69
2021/11/07 10:44:16;;;;;;;32.63;6.80;;;;;;;;;;5031286;28;20075;-70
2021/11/07 10:46:29;;;;;;;19.38;3.75;;;;;;;;;;5025503;28;20032;-70
2021/11/07 10:52:07;;;;;;;25.92;3.97;;;;;;;;;;5032796;28;20032;-70
2021/11/07 10:54:39;;;;;;;29.27;4.78;;;;;;;;;;5032196;28;20022;-70
2021/11/07 10:57:14;;;;;;;19.42;4.95;;;;;;;;;;5030725;28;20025;-69
2021/11/07 10:59:40;;;;;;;24.98;4.38;;;;;;;;;;5030972;28;20090;-69
2021/11/07 11:02:23;;;;;;;25.83;4.35;;;;;;;;;;5032000;28;20021;-69
2021/11/07 11:05:03;;;;;;;19.73;3.95;;;;;;;;;;5032781;28;20021;-69
2021/11/07 11:07:29;;;;;;;26.92;4.53;;;;;;;;;;5013407;28;20076;-69
2021/11/07 11:10:20;;;;;;;20.92;3.95;;;;;;;;;;5022064;28;20637;-69
2021/11/07 11:13:10;;;;;;;24.40;3.75;;;;;;;;;;5023243;28;20104;-69
2021/11/07 11:15:42;;;;;;;23.45;4.38;;;;;;;;;;5033069;28;20017;-69
2021/11/07 11:18:22;;;;;;;19.60;3.30;;;;;;;;;;5031007;28;20029;-69
2021/11/07 11:25:13;;;;;;;27.75;4.15;;;;;;;;;;5009784;28;20025;-69
2021/11/07 11:32:47;;;;;;;19.80;3.75;;;;;;;;;;5031977;28;20026;-69
2021/11/07 11:37:41;;;;;;;20.33;3.20;;;;;;;;;;5012795;28;20028;-69
2021/11/07 11:45:46;;;;;;;39.08;5.55;;;;;;;;;;4956036;28;20019;-69
2021/11/07 11:53:33;;;;;;;19.58;4.38;;;;;;;;;;5031524;28;20024;-70
2021/11/07 11:56:35;;;;;;;22.38;4.32;;;;;;;;;;5029241;28;20021;-71
2021/11/07 11:59:05;;;;;;;21.45;3.33;;;;;;;;;;5030286;28;20103;-71
2021/11/07 12:01:36;;;;;;;9.73;2.85;;;;;;;;;;5029680;28;20018;-70
2021/11/07 12:04:18;;;;;;;;;;;;;;;;;;5032077;28;20021;-70
2021/11/07 12:06:47;;;;;;;21.70;3.75;;;;;;;;;;5031562;28;19920;-69
2021/11/07 12:09:25;;;;;;;23.42;4.07;;;;;;;;;;5029232;28;20032;-69
2021/11/07 12:11:56;;;;;;;24.35;4.72;;;;;;;;;;5030201;28;20088;-69
2021/11/07 12:14:36;;;;;;;18.00;3.15;;;;;;;;;;5030857;28;20104;-69
2021/11/07 12:17:07;;;;;;;19.88;3.40;;;;;;;;;;5031563;28;20057;-70
2021/11/07 12:19:34;;;;;;;20.38;3.35;;;;;;;;;;5031385;28;20041;-70
2021/11/07 12:22:01;;;;;;;28.60;4.30;;;;;;;;;;5031113;28;20056;-70
2021/11/07 12:24:29;;;;;;;20.92;3.78;;;;;;;;;;5029692;28;20070;-70
2021/11/07 12:27:13;;;;;;;25.88;3.42;;;;;;;;;;5031638;28;20027;-70
2021/11/07 12:29:39;;;;;;;26.02;4.10;;;;;;;;;;5031923;28;20398;-70
2021/11/07 12:32:06;;;;;;;26.25;4.28;;;;;;;;;;5031214;28;20091;-70
2021/11/07 12:34:52;;;;;;;17.40;3.17;;;;;;;;;;5031065;28;20415;-70
2021/11/07 12:43:02;;;;;;;25.60;3.80;;;;;;;;;;5030320;28;20386;-69
2021/11/07 12:45:34;;;;;;;18.70;3.60;;;;;;;;;;5030264;28;20382;-70
2021/11/07 12:48:04;;;;;;;25.73;5.90;;;;;;;;;;5030970;28;20063;-71
2021/11/07 12:50:48;;;;;;;19.17;3.47;;;;;;;;;;5030895;28;20025;-72
2021/11/07 12:53:13;;;;;;;24.95;4.38;;;;;;;;;;5030425;28;20029;-71
2021/11/07 12:55:39;;;;;;;16.35;3.28;;;;;;;;;;5029284;28;20033;-72
2021/11/07 12:58:04;;;;;;;23.02;5.05;;;;;;;;;;5030394;28;20083;-71
2021/11/07 13:00:30;;;;;;;18.80;2.72;;;;;;;;;;5043619;23;20053;-63
2021/11/07 13:03:04;;;;;;;24.45;3.45;;;;;;;;;;5030549;28;20079;-64
2021/11/07 13:05:31;;;;;;;21.85;3.88;;;;;;;;;;5029893;28;20116;-64
2021/11/07 13:08:00;;;;;;;26.83;3.33;;;;;;;;;;5029551;28;20029;-64
2021/11/07 13:10:47;;;;;;;14.45;3.95;;;;;;;;;;5029365;28;20026;-64
2021/11/07 13:13:22;;;;;;;22.38;4.72;;;;;;;;;;5030053;28;20053;-65
2021/11/07 13:26:41;;;;;;;17.90;3.42;;;;;;;;;;5016131;28;20555;-63
2021/11/07 13:32:02;;;;;;;21.25;4.53;;;;;;;;;;5030146;28;20017;-64
2021/11/07 13:34:30;;;;;;;20.80;3.90;;;;;;;;;;5030094;28;20026;-66
2021/11/07 13:36:57;;;;;;;20.20;4.05;;;;;;;;;;5030023;28;20544;-63
2021/11/07 13:39:27;;;;;;;20.83;2.95;;;;;;;;;;5029826;28;20478;-64
2021/11/07 13:41:58;;;;;;;30.65;3.45;;;;;;;;;;5035026;28;20026;-63
2021/11/07 13:44:26;;;;;;;18.92;3.42;;;;;;;;;;5029556;28;20414;-64
2021/11/07 13:47:01;;;;;;;24.27;4.47;;;;;;;;;;5026706;28;20104;-64
2021/11/07 13:49:26;;;;;;;31.10;4.43;;;;;;;;;;5030042;28;20496;-64
2021/11/07 13:51:53;;;;;;;31.00;4.60;;;;;;;;;;5028583;28;20029;-65
2021/11/07 13:54:19;;;;;;;18.35;3.88;;;;;;;;;;5028951;28;20469;-65
2021/11/07 13:56:45;;;;;;;12.73;3.38;;;;;;;;;;5028004;28;20029;-65
2021/11/07 13:59:11;;;;;;;22.33;4.47;;;;;;;;;;5029153;28;20536;-64
2021/11/07 14:01:36;;;;;;;22.40;3.33;;;;;;;;;;5028878;28;20029;-66
2021/11/07 14:04:02;;;;;;;21.58;5.18;;;;;;;;;;5029227;28;20100;-65
2021/11/07 14:06:38;;;;;;;18.05;3.25;;;;;;;;;;5027674;28;20021;-65
2021/11/07 14:09:04;;;;;;;14.60;3.20;;;;;;;;;;5029524;28;20033;-66
2021/11/07 14:11:31;;;;;;;22.88;3.30;;;;;;;;;;5026542;28;20024;-66
2021/11/07 14:14:00;;;;;;;22.85;2.65;;;;;;;;;;5025497;28;20017;-66
2021/11/07 14:16:40;;;;;;;18.88;3.80;;;;;;;;;;5028008;28;20124;-65
2021/11/07 14:19:07;;;;;;;20.98;4.28;;;;;;;;;;5026369;28;20017;-65
2021/11/07 14:21:36;;;;;;;17.95;3.53;;;;;;;;;;5025407;28;20021;-64
2021/11/07 14:26:44;;;;;;;15.75;3.13;;;;;;;;;;5028807;28;20022;-66
2021/11/07 14:29:36;;;;;;;23.65;5.30;;;;;;;;;;5029731;28;20022;-66
2021/11/07 14:35:01;;;;;;;15.70;4.32;;;;;;;;;;5029933;28;20489;-65
2021/11/07 14:37:27;;;;;;;23.65;4.63;;;;;;;;;;5035175;28;20120;-65
2021/11/07 14:40:03;;;;;;;16.92;2.60;;;;;;;;;;5030949;28;20021;-65
2021/11/07 14:42:39;;;;;;;25.42;3.90;;;;;;;;;;5028210;28;20126;-66
2021/11/07 14:49:14;;;;;;;26.00;4.55;;;;;;;;;;4970998;28;20039;-66
2021/11/07 14:53:31;;;;;;;18.67;2.92;;;;;;;;;;5034699;28;20033;-65
2021/11/07 15:01:28;;;;;;;25.88;3.72;;;;;;;;;;5033354;28;20524;-66
2021/11/07 15:04:01;;;;;;;45.80;4.85;;;;;;;;;;5013353;28;20104;-65
2021/11/07 15:09:09;;;;;;;24.98;3.78;;;;;;;;;;5032622;28;20032;-65
2021/11/07 15:14:20;;;;;;;28.38;6.10;;;;;;;;;;5032424;28;20056;-64
2021/11/07 15:16:50;;;;;;;20.15;4.85;;;;;;;;;;5023073;28;20104;-66
2021/11/07 15:19:31;;;;;;;22.02;4.40;;;;;;;;;;5029984;28;20025;-68
2021/11/07 15:22:09;;;;;;;19.65;3.33;;;;;;;;;;5032676;28;20017;-65
2021/11/07 15:24:47;;;;;;;18.33;3.00;;;;;;;;;;5027896;28;20019;-66
2021/11/07 15:27:14;;;;;;;30.38;3.75;;;;;;;;;;5029109;28;20478;-68
2021/11/07 15:29:47;;;;;;;28.48;5.50;;;;;;;;;;5032416;28;20033;-65
2021/11/07 15:32:13;;;;;;;15.32;3.55;;;;;;;;;;5032313;28;20021;-67
2021/11/07 15:34:39;;;;;;;24.48;3.30;;;;;;;;;;5032678;28;20021;-68
2021/11/07 15:37:06;;;;;;;24.17;3.63;;;;;;;;;;5031050;28;20035;-68
2021/11/07 15:39:33;;;;;;;18.67;4.22;;;;;;;;;;5034665;28;20056;-65
2021/11/07 15:42:08;;;;;;;31.02;6.25;;;;;;;;;;5031730;28;20026;-65
2021/11/07 15:44:36;;;;;;;20.60;4.38;;;;;;;;;;5029231;28;20025;-68
2021/11/07 15:47:03;;;;;;;30.63;4.53;;;;;;;;;;5037675;28;20021;-69
2021/11/07 15:49:32;;;;;;;33.20;3.80;;;;;;;;;;5036273;28;20040;-65
2021/11/07 15:52:05;;;;;;;24.77;3.83;;;;;;;;;;5038211;28;20052;-67
2021/11/07 15:54:32;;;;;;;31.77;5.95;;;;;;;;;;5031582;28;20029;-66
2021/11/07 15:57:25;;;;;;;25.80;4.63;;;;;;;;;;5044053;28;20033;-68
2021/11/07 16:02:48;;;;;;;;;;;;;;;;;;5031610;28;20018;-66
2021/11/07 16:07:45;;;;;;;20.90;4.00;;;;;;;;;;5030851;28;20036;-65
2021/11/07 16:12:59;;;;;;;22.00;3.58;;;;;;;;;;5027954;28;20021;-67
2021/11/07 16:17:52;;;;;;;32.45;4.88;;;;;;;;;;5031424;28;20101;-66
2021/11/07 16:20:20;;;;;;;33.65;5.38;;;;;;;;;;5031134;28;20024;-65
2021/11/07 16:22:47;;;;;;;21.85;3.25;;;;;;;;;;5030851;28;20103;-65
2021/11/07 16:25:14;;;;;;;25.10;4.18;;;;;;;;;;5029393;28;20021;-65
2021/11/07 16:27:40;;;;;;;17.88;3.78;;;;;;;;;;5030375;28;20017;-65
2021/11/07 16:30:06;;;;;;;24.20;4.07;;;;;;;;;;5031040;28;20466;-66
2021/11/07 16:32:46;;;;;;;33.17;4.93;;;;;;;;;;5028825;28;20071;-65
2021/11/07 16:35:14;;;;;;;26.17;4.10;;;;;;;;;;5030758;28;20029;-67
2021/11/07 16:37:52;;;;;;;23.48;4.10;;;;;;;;;;5031185;28;20026;-65
2021/11/07 16:40:24;;;;;;;20.88;4.43;;;;;;;;;;5030489;28;20481;-65
2021/11/07 16:42:49;;;;;;;24.70;4.70;;;;;;;;;;5030850;28;20021;-66
2021/11/07 16:45:15;;;;;;;27.48;6.03;;;;;;;;;;5031578;28;20036;-65
2021/11/07 16:47:45;;;;;;;22.00;3.95;;;;;;;;;;5033703;28;20491;-64
2021/11/07 16:50:12;;;;;;;;;;;;;;;;;;5030908;28;20048;-66
2021/11/07 16:52:41;;;;;;;30.50;4.53;;;;;;;;;;5030062;28;19909;-66
2021/11/07 16:55:11;;;;;;;23.50;3.67;;;;;;;;;;5030618;28;20018;-64
2021/11/07 16:57:37;;;;;;;16.08;3.42;;;;;;;;;;5030508;28;20479;-65
2021/11/07 17:00:27;;;;;;;30.58;5.47;;;;;;;;;;5030286;28;20100;-65
2021/11/07 17:02:56;;;;;;;24.35;4.13;;;;;;;;;;5027586;28;20040;-66
2021/11/07 17:05:26;;;;;;;;;;;;;;;;;;5030989;28;20703;-64
2021/11/07 17:08:01;;;;;;;32.22;4.28;;;;;;;;;;5032075;28;20464;-64
2021/11/07 17:10:28;;;;;;;31.83;4.22;;;;;;;;;;5029803;28;20028;-65
2021/11/07 17:12:58;;;;;;;28.27;4.93;;;;;;;;;;5028967;28;20096;-64
2021/11/07 17:15:28;;;;;;;23.08;4.25;;;;;;;;;;5030330;28;20209;-65
2021/11/07 17:18:07;;;;;;;32.60;5.82;;;;;;;;;;5029574;28;20118;-65
2021/11/07 17:28:40;;;;;;;21.60;5.93;;;;;;;;;;5030125;28;20025;-65
2021/11/07 17:31:10;;;;;;;34.25;4.95;;;;;;;;;;5029298;28;20045;-65